Hyderabad Weather



Hyderabad's Current Weather

Temprature 29.21o scattered clouds

scattered clouds

Rain: 0 %

Min Temprature29.21o
Max Temprature29.21o
Humidity56
Wind Speed7.71 m/h
Sun Rise06:16:27
Sun Set18:19:27
Current Time: 26-Sep-2022 08:30:41
Lat/Lon: 25.3924, 68.3737




Hyderabad's Geo Location



Hyderabad's Weather Forecast

Time Overall Temp Min Temp Max Temp Humidity Wind Speed Rain
26-Sep-2022 (Mon)
11:00:00 scattered clouds 28.990 28.990 31.800 57 6.68 m/h 0 %
14:00:00 few clouds 32.110 32.110 34.380 47 5.89 m/h 0 %
17:00:00 clear sky 34.170 34.170 34.170 38 5.38 m/h 0 %
20:00:00 few clouds 30.270 30.270 30.270 53 6.53 m/h 0 %
23:00:00 clear sky 28.360 28.360 28.360 60 6.39 m/h 0 %
27-Sep-2022 (Tue)
02:00:00 clear sky 27.170 27.170 27.170 66 6.17 m/h 0 %
05:00:00 clear sky 26.360 26.360 26.360 70 5.99 m/h 0 %
08:00:00 clear sky 27.290 27.290 27.290 65 7.09 m/h 0 %
11:00:00 clear sky 31.880 31.880 31.880 47 7.42 m/h 0 %
14:00:00 clear sky 34.670 34.670 34.670 37 6.79 m/h 0 %
17:00:00 few clouds 33.480 33.480 33.480 40 7.4 m/h 0 %
20:00:00 clear sky 29.630 29.630 29.630 56 7.43 m/h 0 %
23:00:00 clear sky 27.340 27.340 27.340 68 7.36 m/h 0 %
28-Sep-2022 (Wed)
02:00:00 few clouds 26.280 26.280 26.280 75 7.32 m/h 0 %
05:00:00 few clouds 25.700 25.700 25.700 77 6.61 m/h 0 %
08:00:00 scattered clouds 26.740 26.740 26.740 72 7.75 m/h 0 %
11:00:00 scattered clouds 30.940 30.940 30.940 53 8.27 m/h 0 %
14:00:00 clear sky 33.210 33.210 33.210 44 7.85 m/h 0 %
17:00:00 few clouds 32.150 32.150 32.150 47 7.5 m/h 0 %
20:00:00 clear sky 29.030 29.030 29.030 57 6.9 m/h 0 %
23:00:00 clear sky 27.260 27.260 27.260 66 7.15 m/h 0 %
29-Sep-2022 (Thu)
02:00:00 clear sky 26.150 26.150 26.150 71 7.13 m/h 0 %
05:00:00 clear sky 25.590 25.590 25.590 74 7 m/h 0 %
08:00:00 clear sky 26.700 26.700 26.700 69 8.11 m/h 0 %
11:00:00 clear sky 31.020 31.020 31.020 52 7.6 m/h 0 %
14:00:00 clear sky 33.210 33.210 33.210 44 7.5 m/h 0 %
17:00:00 clear sky 31.940 31.940 31.940 48 7.06 m/h 0 %
20:00:00 clear sky 29.000 29.000 29.000 57 6.76 m/h 0 %
23:00:00 clear sky 27.170 27.170 27.170 66 6.92 m/h 0 %
30-Sep-2022 (Fri)
02:00:00 broken clouds 26.140 26.140 26.140 71 6.17 m/h 0 %
05:00:00 broken clouds 25.500 25.500 25.500 75 6.31 m/h 0 %
08:00:00 clear sky 26.560 26.560 26.560 71 7.79 m/h 0 %
11:00:00 clear sky 31.140 31.140 31.140 52 7.59 m/h 0 %
14:00:00 clear sky 33.920 33.920 33.920 42 6.65 m/h 0 %
17:00:00 scattered clouds 32.470 32.470 32.470 45 6.96 m/h 0 %
20:00:00 scattered clouds 29.230 29.230 29.230 58 7.5 m/h 0 %
23:00:00 few clouds 27.270 27.270 27.270 66 7.33 m/h 0 %
01-Oct-2022 (Sat)
02:00:00 clear sky 26.090 26.090 26.090 74 7.44 m/h 0 %
05:00:00 clear sky 25.580 25.580 25.580 77 7.34 m/h 0 %
08:00:00 clear sky 26.540 26.540 26.540 72 9.15 m/h 0 %


Hyderabad's Tourist Spots

Museums in Hyderabad

Famous Cities (61)